sensor_id;sensor_type;location;lat;lon;timestamp;temperature;humidity
64634;DHT22;51043;52.406;9.690;2023-05-14T00:02:01;10.50;99.90
64634;DHT22;51043;52.406;9.690;2023-05-14T00:04:30;10.40;99.90
64634;DHT22;51043;52.406;9.690;2023-05-14T00:07:00;10.30;99.90
64634;DHT22;51043;52.406;9.690;2023-05-14T00:09:28;10.20;99.90
64634;DHT22;51043;52.406;9.690;2023-05-14T00:11:57;10.20;99.90
64634;DHT22;51043;52.406;9.690;2023-05-14T00:14:26;10.20;99.90
64634;DHT22;51043;52.406;9.690;2023-05-14T00:16:54;10.30;99.90
64634;DHT22;51043;52.406;9.690;2023-05-14T00:19:22;10.30;99.90
64634;DHT22;51043;52.406;9.690;2023-05-14T00:21:50;10.40;99.90
64634;DHT22;51043;52.406;9.690;2023-05-14T00:24:18;10.40;99.90
64634;DHT22;51043;52.406;9.690;2023-05-14T00:26:47;10.30;99.90
64634;DHT22;51043;52.406;9.690;2023-05-14T00:29:15;10.30;99.90
64634;DHT22;51043;52.406;9.690;2023-05-14T00:31:45;10.30;99.90
64634;DHT22;51043;52.406;9.690;2023-05-14T00:34:15;10.30;99.90
64634;DHT22;51043;52.406;9.690;2023-05-14T00:36:43;10.10;99.90
64634;DHT22;51043;52.406;9.690;2023-05-14T00:39:15;10.20;99.90
64634;DHT22;51043;52.406;9.690;2023-05-14T00:41:43;10.20;99.90
64634;DHT22;51043;52.406;9.690;2023-05-14T00:44:16;10.10;99.90
64634;DHT22;51043;52.406;9.690;2023-05-14T00:46:46;10.10;99.90
64634;DHT22;51043;52.406;9.690;2023-05-14T00:49:14;10.00;99.90
64634;DHT22;51043;52.406;9.690;2023-05-14T00:51:43;9.90;99.90
64634;DHT22;51043;52.406;9.690;2023-05-14T00:54:12;9.80;99.90
64634;DHT22;51043;52.406;9.690;2023-05-14T00:56:44;9.70;99.90
64634;DHT22;51043;52.406;9.690;2023-05-14T00:59:13;9.60;99.90
64634;DHT22;51043;52.406;9.690;2023-05-14T01:01:41;9.50;99.90
64634;DHT22;51043;52.406;9.690;2023-05-14T01:04:13;9.50;99.90
64634;DHT22;51043;52.406;9.690;2023-05-14T01:06:49;9.40;99.90
64634;DHT22;51043;52.406;9.690;2023-05-14T01:09:25;9.40;99.90
64634;DHT22;51043;52.406;9.690;2023-05-14T01:11:56;9.40;99.90
64634;DHT22;51043;52.406;9.690;2023-05-14T01:14:33;9.30;99.90
64634;DHT22;51043;52.406;9.690;2023-05-14T01:17:05;9.30;99.90
64634;DHT22;51043;52.406;9.690;2023-05-14T01:19:38;9.20;99.90
64634;DHT22;51043;52.406;9.690;2023-05-14T01:22:08;9.20;99.90
64634;DHT22;51043;52.406;9.690;2023-05-14T01:24:39;9.20;99.90
64634;DHT22;51043;52.406;9.690;2023-05-14T01:27:12;9.20;99.90
64634;DHT22;51043;52.406;9.690;2023-05-14T01:29:44;9.20;99.90
64634;DHT22;51043;52.406;9.690;2023-05-14T01:32:15;9.20;99.90
64634;DHT22;51043;52.406;9.690;2023-05-14T01:34:46;9.20;99.90
64634;DHT22;51043;52.406;9.690;2023-05-14T01:37:16;9.20;99.90
64634;DHT22;51043;52.406;9.690;2023-05-14T01:39:45;9.20;99.90
64634;DHT22;51043;52.406;9.690;2023-05-14T01:42:14;9.20;99.90
64634;DHT22;51043;52.406;9.690;2023-05-14T01:44:42;9.20;99.90
64634;DHT22;51043;52.406;9.690;2023-05-14T01:47:10;9.30;99.90
64634;DHT22;51043;52.406;9.690;2023-05-14T01:49:38;9.20;99.90
64634;DHT22;51043;52.406;9.690;2023-05-14T01:52:07;9.30;99.90
64634;DHT22;51043;52.406;9.690;2023-05-14T01:54:42;9.30;99.90
64634;DHT22;51043;52.406;9.690;2023-05-14T01:57:10;9.40;99.90
64634;DHT22;51043;52.406;9.690;2023-05-14T01:59:38;9.50;99.90
64634;DHT22;51043;52.406;9.690;2023-05-14T02:02:06;9.50;99.90
64634;DHT22;51043;52.406;9.690;2023-05-14T02:04:35;9.60;99.90
64634;DHT22;51043;52.406;9.690;2023-05-14T02:07:05;9.60;99.90
64634;DHT22;51043;52.406;9.690;2023-05-14T02:09:33;9.60;99.90
64634;DHT22;51043;52.406;9.690;2023-05-14T02:12:03;9.60;99.90
64634;DHT22;51043;52.406;9.690;2023-05-14T02:14:31;9.60;99.90
64634;DHT22;51043;52.406;9.690;2023-05-14T02:17:02;9.60;99.90
64634;DHT22;51043;52.406;9.690;2023-05-14T02:19:30;9.60;99.90
64634;DHT22;51043;52.406;9.690;2023-05-14T02:21:58;9.60;99.90
64634;DHT22;51043;52.406;9.690;2023-05-14T02:24:26;9.70;99.90
64634;DHT22;51043;52.406;9.690;2023-05-14T02:26:54;9.70;99.90
64634;DHT22;51043;52.406;9.690;2023-05-14T02:29:24;9.60;99.90
64634;DHT22;51043;52.406;9.690;2023-05-14T02:31:54;9.60;99.90
64634;DHT22;51043;52.406;9.690;2023-05-14T02:34:23;9.60;99.90
64634;DHT22;51043;52.406;9.690;2023-05-14T02:36:51;9.50;99.90
64634;DHT22;51043;52.406;9.690;2023-05-14T02:39:19;9.40;99.90
64634;DHT22;51043;52.406;9.690;2023-05-14T02:41:47;9.30;99.90
64634;DHT22;51043;52.406;9.690;2023-05-14T02:44:16;9.30;99.90
64634;DHT22;51043;52.406;9.690;2023-05-14T02:46:46;9.30;99.90
64634;DHT22;51043;52.406;9.690;2023-05-14T02:49:16;9.30;99.90
64634;DHT22;51043;52.406;9.690;2023-05-14T02:51:44;9.20;99.90
64634;DHT22;51043;52.406;9.690;2023-05-14T02:54:12;9.20;99.90
64634;DHT22;51043;52.406;9.690;2023-05-14T02:56:42;9.10;99.90
64634;DHT22;51043;52.406;9.690;2023-05-14T02:59:10;9.20;99.90
64634;DHT22;51043;52.406;9.690;2023-05-14T03:01:41;9.30;99.90
64634;DHT22;51043;52.406;9.690;2023-05-14T03:04:10;9.40;99.90
64634;DHT22;51043;52.406;9.690;2023-05-14T03:06:41;9.50;99.90
64634;DHT22;51043;52.406;9.690;2023-05-14T03:09:09;9.60;99.90
64634;DHT22;51043;52.406;9.690;2023-05-14T03:11:37;9.60;99.90
64634;DHT22;51043;52.406;9.690;2023-05-14T03:14:13;9.50;99.90
64634;DHT22;51043;52.406;9.690;2023-05-14T03:16:41;9.50;99.90
64634;DHT22;51043;52.406;9.690;2023-05-14T03:19:10;9.50;99.90
64634;DHT22;51043;52.406;9.690;2023-05-14T03:21:39;9.50;99.90
64634;DHT22;51043;52.406;9.690;2023-05-14T03:24:07;9.40;99.90
64634;DHT22;51043;52.406;9.690;2023-05-14T03:26:35;9.40;99.90
64634;DHT22;51043;52.406;9.690;2023-05-14T03:29:04;9.40;99.90
64634;DHT22;51043;52.406;9.690;2023-05-14T03:31:33;9.40;99.90
64634;DHT22;51043;52.406;9.690;2023-05-14T03:34:01;9.30;99.90
64634;DHT22;51043;52.406;9.690;2023-05-14T03:36:31;9.40;99.90
64634;DHT22;51043;52.406;9.690;2023-05-14T03:38:59;9.20;99.90
64634;DHT22;51043;52.406;9.690;2023-05-14T03:41:27;9.20;99.90
64634;DHT22;51043;52.406;9.690;2023-05-14T03:43:55;9.20;99.90
64634;DHT22;51043;52.406;9.690;2023-05-14T03:46:23;9.10;99.90
64634;DHT22;51043;52.406;9.690;2023-05-14T03:48:52;9.10;99.90
64634;DHT22;51043;52.406;9.690;2023-05-14T03:51:20;9.10;99.90
64634;DHT22;51043;52.406;9.690;2023-05-14T03:53:49;9.20;99.90
64634;DHT22;51043;52.406;9.690;2023-05-14T03:56:17;9.30;99.90
64634;DHT22;51043;52.406;9.690;2023-05-14T03:58:46;9.20;99.90
64634;DHT22;51043;52.406;9.690;2023-05-14T04:01:14;9.20;99.90
64634;DHT22;51043;52.406;9.690;2023-05-14T04:03:42;9.20;99.90
64634;DHT22;51043;52.406;9.690;2023-05-14T04:06:11;9.30;99.90
64634;DHT22;51043;52.406;9.690;2023-05-14T04:08:40;9.30;99.90
64634;DHT22;51043;52.406;9.690;2023-05-14T04:11:09;9.40;99.90
64634;DHT22;51043;52.406;9.690;2023-05-14T04:13:40;9.40;99.90
64634;DHT22;51043;52.406;9.690;2023-05-14T04:16:09;9.40;99.90
64634;DHT22;51043;52.406;9.690;2023-05-14T04:18:37;9.40;99.90
64634;DHT22;51043;52.406;9.690;2023-05-14T04:21:05;9.50;99.90
64634;DHT22;51043;52.406;9.690;2023-05-14T04:23:33;9.60;99.90
64634;DHT22;51043;52.406;9.690;2023-05-14T04:26:01;9.70;99.90
64634;DHT22;51043;52.406;9.690;2023-05-14T04:28:32;9.70;99.90
64634;DHT22;51043;52.406;9.690;2023-05-14T04:31:00;9.80;99.90
64634;DHT22;51043;52.406;9.690;2023-05-14T04:33:29;9.80;99.90
64634;DHT22;51043;52.406;9.690;2023-05-14T04:35:57;9.90;99.90
64634;DHT22;51043;52.406;9.690;2023-05-14T04:38:25;10.00;99.90
64634;DHT22;51043;52.406;9.690;2023-05-14T04:40:53;10.00;99.90
64634;DHT22;51043;52.406;9.690;2023-05-14T04:43:22;10.00;99.90
64634;DHT22;51043;52.406;9.690;2023-05-14T04:45:51;10.20;99.90
64634;DHT22;51043;52.406;9.690;2023-05-14T04:48:20;10.20;99.90
64634;DHT22;51043;52.406;9.690;2023-05-14T04:50:48;10.30;99.90
64634;DHT22;51043;52.406;9.690;2023-05-14T04:53:16;10.50;99.90
64634;DHT22;51043;52.406;9.690;2023-05-14T04:55:44;10.70;99.90
64634;DHT22;51043;52.406;9.690;2023-05-14T04:58:12;10.90;99.90
64634;DHT22;51043;52.406;9.690;2023-05-14T05:00:41;11.20;99.90
64634;DHT22;51043;52.406;9.690;2023-05-14T05:03:10;11.20;99.90
64634;DHT22;51043;52.406;9.690;2023-05-14T05:05:39;11.50;99.90
64634;DHT22;51043;52.406;9.690;2023-05-14T05:08:07;11.70;99.90
64634;DHT22;51043;52.406;9.690;2023-05-14T05:10:35;11.80;99.90
64634;DHT22;51043;52.406;9.690;2023-05-14T05:13:03;12.00;99.90
64634;DHT22;51043;52.406;9.690;2023-05-14T05:15:31;12.20;99.90
64634;DHT22;51043;52.406;9.690;2023-05-14T05:17:59;12.40;99.90
64634;DHT22;51043;52.406;9.690;2023-05-14T05:20:28;12.60;99.90
64634;DHT22;51043;52.406;9.690;2023-05-14T05:22:57;12.80;99.90
64634;DHT22;51043;52.406;9.690;2023-05-14T05:25:25;12.90;99.90
64634;DHT22;51043;52.406;9.690;2023-05-14T05:27:54;13.10;99.90
64634;DHT22;51043;52.406;9.690;2023-05-14T05:30:22;13.30;99.90
64634;DHT22;51043;52.406;9.690;2023-05-14T05:32:50;13.70;99.90
64634;DHT22;51043;52.406;9.690;2023-05-14T05:35:19;13.80;99.90
64634;DHT22;51043;52.406;9.690;2023-05-14T05:37:48;13.90;99.90
64634;DHT22;51043;52.406;9.690;2023-05-14T05:40:17;14.20;99.90
64634;DHT22;51043;52.406;9.690;2023-05-14T05:42:45;14.40;99.90
64634;DHT22;51043;52.406;9.690;2023-05-14T05:45:13;14.50;99.90
64634;DHT22;51043;52.406;9.690;2023-05-14T05:47:43;14.70;99.90
64634;DHT22;51043;52.406;9.690;2023-05-14T05:50:12;15.00;99.90
64634;DHT22;51043;52.406;9.690;2023-05-14T05:52:43;15.10;99.90
64634;DHT22;51043;52.406;9.690;2023-05-14T05:55:13;15.40;99.90
64634;DHT22;51043;52.406;9.690;2023-05-14T05:57:44;15.50;99.90
64634;DHT22;51043;52.406;9.690;2023-05-14T06:00:13;15.60;99.90
64634;DHT22;51043;52.406;9.690;2023-05-14T06:02:43;15.90;99.90
64634;DHT22;51043;52.406;9.690;2023-05-14T06:05:11;15.90;99.90
64634;DHT22;51043;52.406;9.690;2023-05-14T06:07:40;16.10;99.90
64634;DHT22;51043;52.406;9.690;2023-05-14T06:10:11;16.20;99.90
64634;DHT22;51043;52.406;9.690;2023-05-14T06:12:43;16.40;99.90
64634;DHT22;51043;52.406;9.690;2023-05-14T06:15:12;16.50;99.90
64634;DHT22;51043;52.406;9.690;2023-05-14T06:17:40;16.70;99.90
64634;DHT22;51043;52.406;9.690;2023-05-14T06:20:12;17.00;99.90
64634;DHT22;51043;52.406;9.690;2023-05-14T06:22:40;17.10;99.90
64634;DHT22;51043;52.406;9.690;2023-05-14T06:25:09;17.20;99.90
64634;DHT22;51043;52.406;9.690;2023-05-14T06:27:37;17.30;99.90
64634;DHT22;51043;52.406;9.690;2023-05-14T06:30:08;17.40;99.90
64634;DHT22;51043;52.406;9.690;2023-05-14T06:32:37;17.60;99.90
64634;DHT22;51043;52.406;9.690;2023-05-14T06:35:19;17.70;99.90
64634;DHT22;51043;52.406;9.690;2023-05-14T06:37:51;17.70;99.90
64634;DHT22;51043;52.406;9.690;2023-05-14T06:40:19;17.70;99.90
64634;DHT22;51043;52.406;9.690;2023-05-14T06:42:48;17.80;99.90
64634;DHT22;51043;52.406;9.690;2023-05-14T06:45:17;17.80;99.90
64634;DHT22;51043;52.406;9.690;2023-05-14T06:47:45;17.90;99.90
64634;DHT22;51043;52.406;9.690;2023-05-14T06:50:15;18.00;99.90
64634;DHT22;51043;52.406;9.690;2023-05-14T06:52:44;18.10;99.90
64634;DHT22;51043;52.406;9.690;2023-05-14T06:55:12;18.30;99.90
64634;DHT22;51043;52.406;9.690;2023-05-14T06:57:41;18.50;99.90
64634;DHT22;51043;52.406;9.690;2023-05-14T07:00:12;18.60;99.90
64634;DHT22;51043;52.406;9.690;2023-05-14T07:02:43;18.80;99.90
64634;DHT22;51043;52.406;9.690;2023-05-14T07:05:11;19.00;99.90
64634;DHT22;51043;52.406;9.690;2023-05-14T07:07:39;19.20;99.90
64634;DHT22;51043;52.406;9.690;2023-05-14T07:10:09;19.30;99.90
64634;DHT22;51043;52.406;9.690;2023-05-14T07:12:38;19.50;99.90
64634;DHT22;51043;52.406;9.690;2023-05-14T07:15:14;19.60;99.90
64634;DHT22;51043;52.406;9.690;2023-05-14T07:17:47;19.70;99.90
64634;DHT22;51043;52.406;9.690;2023-05-14T07:20:15;19.90;99.90
64634;DHT22;51043;52.406;9.690;2023-05-14T07:22:47;20.10;99.90
64634;DHT22;51043;52.406;9.690;2023-05-14T07:25:15;20.10;99.90
64634;DHT22;51043;52.406;9.690;2023-05-14T07:27:44;20.20;99.90
64634;DHT22;51043;52.406;9.690;2023-05-14T07:30:12;20.60;99.90
64634;DHT22;51043;52.406;9.690;2023-05-14T07:32:40;21.10;99.90
64634;DHT22;51043;52.406;9.690;2023-05-14T07:35:18;21.90;99.90
64634;DHT22;51043;52.406;9.690;2023-05-14T07:37:51;23.00;97.40
64634;DHT22;51043;52.406;9.690;2023-05-14T07:40:19;23.60;91.40
64634;DHT22;51043;52.406;9.690;2023-05-14T07:42:48;24.40;87.00
64634;DHT22;51043;52.406;9.690;2023-05-14T07:45:16;24.60;80.10
64634;DHT22;51043;52.406;9.690;2023-05-14T07:47:44;25.20;77.70
64634;DHT22;51043;52.406;9.690;2023-05-14T07:50:13;25.80;71.70
64634;DHT22;51043;52.406;9.690;2023-05-14T07:52:45;26.40;71.30
64634;DHT22;51043;52.406;9.690;2023-05-14T07:55:16;26.90;62.80
64634;DHT22;51043;52.406;9.690;2023-05-14T07:57:48;27.10;62.00
64634;DHT22;51043;52.406;9.690;2023-05-14T08:00:16;27.70;59.20
64634;DHT22;51043;52.406;9.690;2023-05-14T08:02:47;27.60;57.10
64634;DHT22;51043;52.406;9.690;2023-05-14T08:05:16;27.60;58.00
64634;DHT22;51043;52.406;9.690;2023-05-14T08:07:46;28.50;54.90
64634;DHT22;51043;52.406;9.690;2023-05-14T08:10:14;28.80;51.30
64634;DHT22;51043;52.406;9.690;2023-05-14T08:12:42;28.50;51.50
64634;DHT22;51043;52.406;9.690;2023-05-14T08:15:12;28.20;50.30
64634;DHT22;51043;52.406;9.690;2023-05-14T08:17:41;28.50;51.20
64634;DHT22;51043;52.406;9.690;2023-05-14T08:20:09;28.30;49.50
64634;DHT22;51043;52.406;9.690;2023-05-14T08:22:38;28.00;51.40
64634;DHT22;51043;52.406;9.690;2023-05-14T08:25:08;28.00;51.50
64634;DHT22;51043;52.406;9.690;2023-05-14T08:27:36;28.70;48.80
64634;DHT22;51043;52.406;9.690;2023-05-14T08:30:06;28.90;50.00
64634;DHT22;51043;52.406;9.690;2023-05-14T08:32:34;29.60;48.60
64634;DHT22;51043;52.406;9.690;2023-05-14T08:35:04;29.30;49.10
64634;DHT22;51043;52.406;9.690;2023-05-14T08:37:32;29.50;47.60
64634;DHT22;51043;52.406;9.690;2023-05-14T08:40:01;29.70;46.90
64634;DHT22;51043;52.406;9.690;2023-05-14T08:42:30;29.40;45.50
64634;DHT22;51043;52.406;9.690;2023-05-14T08:45:00;29.60;46.10
64634;DHT22;51043;52.406;9.690;2023-05-14T08:47:29;29.90;47.70
64634;DHT22;51043;52.406;9.690;2023-05-14T08:50:01;30.60;46.30
64634;DHT22;51043;52.406;9.690;2023-05-14T08:52:30;30.80;44.50
64634;DHT22;51043;52.406;9.690;2023-05-14T08:55:00;31.00;44.60
64634;DHT22;51043;52.406;9.690;2023-05-14T08:57:32;31.00;43.10
64634;DHT22;51043;52.406;9.690;2023-05-14T09:00:01;31.10;43.70
64634;DHT22;51043;52.406;9.690;2023-05-14T09:02:33;30.90;42.10
64634;DHT22;51043;52.406;9.690;2023-05-14T09:05:02;31.00;42.80
64634;DHT22;51043;52.406;9.690;2023-05-14T09:07:30;31.10;41.00
64634;DHT22;51043;52.406;9.690;2023-05-14T09:09:59;31.10;40.70
64634;DHT22;51043;52.406;9.690;2023-05-14T09:12:29;30.10;41.30
64634;DHT22;51043;52.406;9.690;2023-05-14T09:14:59;30.50;40.60
64634;DHT22;51043;52.406;9.690;2023-05-14T09:17:27;30.80;41.00
64634;DHT22;51043;52.406;9.690;2023-05-14T09:19:59;31.10;40.00
64634;DHT22;51043;52.406;9.690;2023-05-14T09:22:28;30.80;39.50
64634;DHT22;51043;52.406;9.690;2023-05-14T09:25:02;30.80;40.50
64634;DHT22;51043;52.406;9.690;2023-05-14T09:27:34;30.90;39.60
64634;DHT22;51043;52.406;9.690;2023-05-14T09:30:09;31.10;39.30
64634;DHT22;51043;52.406;9.690;2023-05-14T09:32:42;31.50;37.30
64634;DHT22;51043;52.406;9.690;2023-05-14T09:35:16;31.50;37.80
64634;DHT22;51043;52.406;9.690;2023-05-14T09:37:53;32.30;38.30
64634;DHT22;51043;52.406;9.690;2023-05-14T09:40:22;31.60;36.30
64634;DHT22;51043;52.406;9.690;2023-05-14T09:42:50;32.30;37.10
64634;DHT22;51043;52.406;9.690;2023-05-14T09:45:20;32.50;36.10
64634;DHT22;51043;52.406;9.690;2023-05-14T09:47:48;32.70;37.50
64634;DHT22;51043;52.406;9.690;2023-05-14T09:50:17;32.80;36.90
64634;DHT22;51043;52.406;9.690;2023-05-14T09:52:47;33.00;37.70
64634;DHT22;51043;52.406;9.690;2023-05-14T09:55:16;32.30;35.20
64634;DHT22;51043;52.406;9.690;2023-05-14T09:57:47;31.90;36.50
64634;DHT22;51043;52.406;9.690;2023-05-14T10:00:16;31.80;36.50
64634;DHT22;51043;52.406;9.690;2023-05-14T10:02:46;31.80;36.50
64634;DHT22;51043;52.406;9.690;2023-05-14T10:05:16;31.30;35.30
64634;DHT22;51043;52.406;9.690;2023-05-14T10:07:53;30.60;35.60
64634;DHT22;51043;52.406;9.690;2023-05-14T10:10:25;29.90;36.10
64634;DHT22;51043;52.406;9.690;2023-05-14T10:13:01;29.70;35.90
64634;DHT22;51043;52.406;9.690;2023-05-14T10:15:35;29.50;36.70
64634;DHT22;51043;52.406;9.690;2023-05-14T10:18:12;28.40;39.00
64634;DHT22;51043;52.406;9.690;2023-05-14T10:20:52;27.70;40.30
64634;DHT22;51043;52.406;9.690;2023-05-14T10:23:24;27.00;42.30
64634;DHT22;51043;52.406;9.690;2023-05-14T10:25:52;27.50;41.10
64634;DHT22;51043;52.406;9.690;2023-05-14T10:28:20;28.10;39.60
64634;DHT22;51043;52.406;9.690;2023-05-14T10:30:48;27.90;40.60
64634;DHT22;51043;52.406;9.690;2023-05-14T10:33:18;27.90;39.70
64634;DHT22;51043;52.406;9.690;2023-05-14T10:35:56;27.30;39.50
64634;DHT22;51043;52.406;9.690;2023-05-14T10:38:26;26.70;41.30
64634;DHT22;51043;52.406;9.690;2023-05-14T10:41:10;26.10;42.20
64634;DHT22;51043;52.406;9.690;2023-05-14T10:43:39;25.70;43.20
64634;DHT22;51043;52.406;9.690;2023-05-14T10:46:10;25.10;43.70
64634;DHT22;51043;52.406;9.690;2023-05-14T10:48:41;25.00;44.60
64634;DHT22;51043;52.406;9.690;2023-05-14T10:51:10;26.30;43.30
64634;DHT22;51043;52.406;9.690;2023-05-14T10:53:39;28.00;41.90
64634;DHT22;51043;52.406;9.690;2023-05-14T10:56:09;29.00;38.90
64634;DHT22;51043;52.406;9.690;2023-05-14T10:58:38;30.40;37.90
64634;DHT22;51043;52.406;9.690;2023-05-14T11:01:06;31.00;36.00
64634;DHT22;51043;52.406;9.690;2023-05-14T11:03:41;31.30;36.30
64634;DHT22;51043;52.406;9.690;2023-05-14T11:06:11;32.10;35.50
64634;DHT22;51043;52.406;9.690;2023-05-14T11:08:40;33.00;33.90
64634;DHT22;51043;52.406;9.690;2023-05-14T11:11:08;34.30;32.60
64634;DHT22;51043;52.406;9.690;2023-05-14T11:13:37;35.00;30.30
64634;DHT22;51043;52.406;9.690;2023-05-14T11:16:05;34.00;32.50
64634;DHT22;51043;52.406;9.690;2023-05-14T11:18:42;34.50;31.60
64634;DHT22;51043;52.406;9.690;2023-05-14T11:21:10;34.40;30.80
64634;DHT22;51043;52.406;9.690;2023-05-14T11:23:45;32.50;31.80
64634;DHT22;51043;52.406;9.690;2023-05-14T11:26:14;29.40;38.80
64634;DHT22;51043;52.406;9.690;2023-05-14T11:28:43;27.50;43.90
64634;DHT22;51043;52.406;9.690;2023-05-14T11:31:15;25.60;51.20
64634;DHT22;51043;52.406;9.690;2023-05-14T11:33:45;24.00;56.90
64634;DHT22;51043;52.406;9.690;2023-05-14T11:36:13;22.80;56.90
64634;DHT22;51043;52.406;9.690;2023-05-14T11:38:45;22.30;57.70
64634;DHT22;51043;52.406;9.690;2023-05-14T11:41:16;22.30;56.20
64634;DHT22;51043;52.406;9.690;2023-05-14T11:43:49;22.30;55.40
64634;DHT22;51043;52.406;9.690;2023-05-14T11:46:18;22.30;58.10
64634;DHT22;51043;52.406;9.690;2023-05-14T11:48:51;22.20;56.80
64634;DHT22;51043;52.406;9.690;2023-05-14T11:51:20;22.20;61.50
64634;DHT22;51043;52.406;9.690;2023-05-14T11:53:53;22.40;54.90
64634;DHT22;51043;52.406;9.690;2023-05-14T11:56:21;22.60;55.70
64634;DHT22;51043;52.406;9.690;2023-05-14T11:58:54;23.20;52.70
64634;DHT22;51043;52.406;9.690;2023-05-14T12:01:22;25.00;53.80
64634;DHT22;51043;52.406;9.690;2023-05-14T12:03:52;27.20;45.70
64634;DHT22;51043;52.406;9.690;2023-05-14T12:06:29;27.80;42.60
64634;DHT22;51043;52.406;9.690;2023-05-14T12:08:57;27.90;42.30
64634;DHT22;51043;52.406;9.690;2023-05-14T12:11:29;28.10;41.70
64634;DHT22;51043;52.406;9.690;2023-05-14T12:13:59;28.60;41.30
64634;DHT22;51043;52.406;9.690;2023-05-14T12:16:29;29.90;38.50
64634;DHT22;51043;52.406;9.690;2023-05-14T12:19:00;29.50;36.00
64634;DHT22;51043;52.406;9.690;2023-05-14T12:21:29;28.60;37.60
64634;DHT22;51043;52.406;9.690;2023-05-14T12:23:58;28.00;41.00
64634;DHT22;51043;52.406;9.690;2023-05-14T12:26:26;27.60;42.20
64634;DHT22;51043;52.406;9.690;2023-05-14T12:28:56;27.40;41.10
64634;DHT22;51043;52.406;9.690;2023-05-14T12:31:31;28.60;44.10
64634;DHT22;51043;52.406;9.690;2023-05-14T12:34:04;30.60;38.60
64634;DHT22;51043;52.406;9.690;2023-05-14T12:36:32;32.30;36.90
64634;DHT22;51043;52.406;9.690;2023-05-14T12:39:03;32.90;31.60
64634;DHT22;51043;52.406;9.690;2023-05-14T12:41:32;32.70;34.50
64634;DHT22;51043;52.406;9.690;2023-05-14T12:44:01;31.80;33.60
64634;DHT22;51043;52.406;9.690;2023-05-14T12:46:30;30.10;36.20
64634;DHT22;51043;52.406;9.690;2023-05-14T12:48:59;28.70;37.90
64634;DHT22;51043;52.406;9.690;2023-05-14T12:51:31;27.50;39.70
64634;DHT22;51043;52.406;9.690;2023-05-14T12:53:59;26.30;43.50
64634;DHT22;51043;52.406;9.690;2023-05-14T12:56:30;25.40;41.80
64634;DHT22;51043;52.406;9.690;2023-05-14T12:58:58;24.90;42.90
64634;DHT22;51043;52.406;9.690;2023-05-14T13:01:29;26.10;42.90
64634;DHT22;51043;52.406;9.690;2023-05-14T13:03:58;27.80;41.60
64634;DHT22;51043;52.406;9.690;2023-05-14T13:06:26;28.90;40.70
64634;DHT22;51043;52.406;9.690;2023-05-14T13:08:55;30.00;38.10
64634;DHT22;51043;52.406;9.690;2023-05-14T13:11:25;31.30;36.40
64634;DHT22;51043;52.406;9.690;2023-05-14T13:13:56;32.00;34.20
64634;DHT22;51043;52.406;9.690;2023-05-14T13:16:24;31.70;36.20
64634;DHT22;51043;52.406;9.690;2023-05-14T13:18:52;31.80;33.40
64634;DHT22;51043;52.406;9.690;2023-05-14T13:21:21;32.40;32.70
64634;DHT22;51043;52.406;9.690;2023-05-14T13:23:54;33.40;30.00
64634;DHT22;51043;52.406;9.690;2023-05-14T13:26:23;33.90;33.30
64634;DHT22;51043;52.406;9.690;2023-05-14T13:28:53;35.10;29.40
64634;DHT22;51043;52.406;9.690;2023-05-14T13:31:21;35.70;28.40
64634;DHT22;51043;52.406;9.690;2023-05-14T13:33:53;35.90;28.60
64634;DHT22;51043;52.406;9.690;2023-05-14T13:36:21;36.60;29.00
64634;DHT22;51043;52.406;9.690;2023-05-14T13:38:52;37.70;27.70
64634;DHT22;51043;52.406;9.690;2023-05-14T13:41:24;37.90;26.20
64634;DHT22;51043;52.406;9.690;2023-05-14T13:43:52;35.90;27.00
64634;DHT22;51043;52.406;9.690;2023-05-14T13:46:21;34.20;28.50
64634;DHT22;51043;52.406;9.690;2023-05-14T13:48:52;32.00;30.70
64634;DHT22;51043;52.406;9.690;2023-05-14T13:51:20;30.20;32.00
64634;DHT22;51043;52.406;9.690;2023-05-14T13:53:51;28.40;34.60
64634;DHT22;51043;52.406;9.690;2023-05-14T13:56:20;26.50;37.30
64634;DHT22;51043;52.406;9.690;2023-05-14T13:58:53;25.10;39.90
64634;DHT22;51043;52.406;9.690;2023-05-14T14:01:21;24.30;42.30
64634;DHT22;51043;52.406;9.690;2023-05-14T14:03:52;23.70;42.90
64634;DHT22;51043;52.406;9.690;2023-05-14T14:06:20;23.60;44.70
64634;DHT22;51043;52.406;9.690;2023-05-14T14:08:48;25.10;43.50
64634;DHT22;51043;52.406;9.690;2023-05-14T14:11:16;26.50;39.90
64634;DHT22;51043;52.406;9.690;2023-05-14T14:13:44;27.00;37.60
64634;DHT22;51043;52.406;9.690;2023-05-14T14:16:14;26.70;37.90
64634;DHT22;51043;52.406;9.690;2023-05-14T14:18:43;26.60;37.80
64634;DHT22;51043;52.406;9.690;2023-05-14T14:21:14;26.70;37.90
64634;DHT22;51043;52.406;9.690;2023-05-14T14:23:44;27.00;37.60
64634;DHT22;51043;52.406;9.690;2023-05-14T14:26:13;27.60;37.50
64634;DHT22;51043;52.406;9.690;2023-05-14T14:28:41;27.90;37.00
64634;DHT22;51043;52.406;9.690;2023-05-14T14:31:09;28.40;36.10
64634;DHT22;51043;52.406;9.690;2023-05-14T14:33:39;28.90;35.20
64634;DHT22;51043;52.406;9.690;2023-05-14T14:36:07;29.60;36.00
64634;DHT22;51043;52.406;9.690;2023-05-14T14:38:35;30.10;34.20
64634;DHT22;51043;52.406;9.690;2023-05-14T14:41:05;30.70;34.70
64634;DHT22;51043;52.406;9.690;2023-05-14T14:43:33;31.00;33.20
64634;DHT22;51043;52.406;9.690;2023-05-14T14:46:01;31.10;33.30
64634;DHT22;51043;52.406;9.690;2023-05-14T14:48:31;31.10;33.90
64634;DHT22;51043;52.406;9.690;2023-05-14T14:51:01;30.90;34.60
64634;DHT22;51043;52.406;9.690;2023-05-14T14:53:31;30.10;34.20
64634;DHT22;51043;52.406;9.690;2023-05-14T14:56:00;29.00;35.70
64634;DHT22;51043;52.406;9.690;2023-05-14T14:58:28;27.90;36.90
64634;DHT22;51043;52.406;9.690;2023-05-14T15:00:57;27.30;37.90
64634;DHT22;51043;52.406;9.690;2023-05-14T15:03:27;26.50;39.20
64634;DHT22;51043;52.406;9.690;2023-05-14T15:05:55;25.90;40.30
64634;DHT22;51043;52.406;9.690;2023-05-14T15:08:26;25.40;40.00
64634;DHT22;51043;52.406;9.690;2023-05-14T15:10:55;24.80;41.60
64634;DHT22;51043;52.406;9.690;2023-05-14T15:13:23;24.60;42.30
64634;DHT22;51043;52.406;9.690;2023-05-14T15:15:52;24.30;41.90
64634;DHT22;51043;52.406;9.690;2023-05-14T15:18:20;24.10;42.30
64634;DHT22;51043;52.406;9.690;2023-05-14T15:20:49;24.00;42.30
64634;DHT22;51043;52.406;9.690;2023-05-14T15:23:18;24.00;43.60
64634;DHT22;51043;52.406;9.690;2023-05-14T15:25:48;23.60;42.40
64634;DHT22;51043;52.406;9.690;2023-05-14T15:28:16;23.30;42.90
64634;DHT22;51043;52.406;9.690;2023-05-14T15:30:46;23.10;44.50
64634;DHT22;51043;52.406;9.690;2023-05-14T15:33:15;23.20;44.80
64634;DHT22;51043;52.406;9.690;2023-05-14T15:35:44;23.30;44.50
64634;DHT22;51043;52.406;9.690;2023-05-14T15:38:12;23.20;44.90
64634;DHT22;51043;52.406;9.690;2023-05-14T15:40:41;23.00;44.10
64634;DHT22;51043;52.406;9.690;2023-05-14T15:43:10;23.00;44.70
64634;DHT22;51043;52.406;9.690;2023-05-14T15:45:38;22.80;43.70
64634;DHT22;51043;52.406;9.690;2023-05-14T15:48:07;22.70;44.30
64634;DHT22;51043;52.406;9.690;2023-05-14T15:50:35;22.50;45.20